Norse Mersey — IBEN — position and weather

sailwx.info

Track history (hours):
 
Tides and Currents Weather Stations Pressure Air Temp Water Temp Dewpoint Dewpoint Depression Visibility Wind Speed Wind Dir Waves Ship Positions

Norse Mersey

Operator: Norse Merchant Ferries

Last reported at 2014-Sep-23 12:11 UTC. Time now 2014-Oct-02 04:30 UTC.
Position N 40°23' E 014°44'.
Warning: this ship's position is 8 days out of date.

Length 175 m; draft 5.3 m.

Type: Ship (hazmat cat A). MMSI: 247026000.

Date/timePositionNaut miles runAvg speedWind from/ knotsBaromVisibWave heightAir tempDewpointWater temp
2014-Sep-23 12:11N 40°23' E 014°44'23810.9
2014-Sep-22 14:24N 36°26' E 015°05'1416.5
2014-Sep-22 13:33N 36°15' E 014°54'1716.6
2014-Sep-22 12:33N 36°03' E 014°41'13 3.2
2014-Sep-22 08:33N 35°53' E 014°31'0 0.0
2014-Sep-22 07:33N 35°53' E 014°31'0 0.0
2014-Sep-22 05:33N 35°53' E 014°31'0 0.1
2014-Sep-22 04:06N 35°53' E 014°30'0 0.0
2014-Sep-22 02:33N 35°53' E 014°30'0 0.2
2014-Sep-22 01:26N 35°53' E 014°31'910.2
2014-Sep-22 00:33N 36°00' E 014°38'1515.2
2014-Sep-21 23:33N 36°12' E 014°50'1515.4
2014-Sep-21 22:33N 36°23' E 015°03'  
2014-Sep-15 14:07N 36°25' E 015°05'916.2
2014-Sep-15 13:33N 36°18' E 014°57'1616.2
2014-Sep-15 12:33N 36°06' E 014°44'1615.7
2014-Sep-15 11:33N 35°54' E 014°31'1 0.8
2014-Sep-15 10:28N 35°53' E 014°31'1 0.1
2014-Sep-15 01:08N 35°54' E 014°31'7 8.9
2014-Sep-15 00:23N 35°59' E 014°37'246 8.7
2014-Sep-13 20:07N 40°04' E 014°47'1315.1
2014-Sep-13 19:13N 40°17' E 014°43'1015.3
2014-Sep-13 18:33N 40°28' E 014°43'  
Track history (hours):
 
Tides and Currents Weather Stations Pressure Air Temp Water Temp Dewpoint Dewpoint Depression Visibility Wind Speed Wind Dir Waves Ship Positions

Norse Mersey

Operator: Norse Merchant Ferries

Last reported at 2014-Sep-23 12:11 UTC. Time now 2014-Oct-02 04:30 UTC.
Position N 40°23' E 014°44'.
Warning: this ship's position is 8 days out of date.

Length 175 m; draft 5.3 m.

Type: Ship (hazmat cat A). MMSI: 247026000.

Date/timePositionNaut miles runAvg speedWind from/ knotsBaromVisibWave heightAir tempDewpointWater temp
2014-Sep-23 12:11N 40°23' E 014°44'23810.9
2014-Sep-22 14:24N 36°26' E 015°05'1416.5
2014-Sep-22 13:33N 36°15' E 014°54'1716.6
2014-Sep-22 12:33N 36°03' E 014°41'13 3.2
2014-Sep-22 08:33N 35°53' E 014°31'0 0.0
2014-Sep-22 07:33N 35°53' E 014°31'0 0.0
2014-Sep-22 05:33N 35°53' E 014°31'0 0.1
2014-Sep-22 04:06N 35°53' E 014°30'0 0.0
2014-Sep-22 02:33N 35°53' E 014°30'0 0.2
2014-Sep-22 01:26N 35°53' E 014°31'910.2
2014-Sep-22 00:33N 36°00' E 014°38'1515.2
2014-Sep-21 23:33N 36°12' E 014°50'1515.4
2014-Sep-21 22:33N 36°23' E 015°03'  
2014-Sep-15 14:07N 36°25' E 015°05'916.2
2014-Sep-15 13:33N 36°18' E 014°57'1616.2
2014-Sep-15 12:33N 36°06' E 014°44'1615.7
2014-Sep-15 11:33N 35°54' E 014°31'1 0.8
2014-Sep-15 10:28N 35°53' E 014°31'1 0.1
2014-Sep-15 01:08N 35°54' E 014°31'7 8.9
2014-Sep-15 00:23N 35°59' E 014°37'246 8.7
2014-Sep-13 20:07N 40°04' E 014°47'1315.1
2014-Sep-13 19:13N 40°17' E 014°43'1015.3
2014-Sep-13 18:33N 40°28' E 014°43'  

Dump ship's entire track history